Time,TemperatureF,DewpointF,PressureIn,WindDirection,WindDirectionDegrees,WindSpeedMPH,WindSpeedGustMPH,Humidity,HourlyPrecipIn,Conditions,Clouds,dailyrainin,SoftwareType,DateUTC
2013-06-22 00:02:00,58.8,53.3,30.10,NW,318,0.0,0.0,82,0.00,,---,0.00,VWS V14.00,2013-06-22 07:02:00,
2013-06-22 00:07:00,58.6,53.1,30.10,NW,318,0.0,0.0,82,0.00,,---,0.00,VWS V14.00,2013-06-22 07:07:00,
2013-06-22 00:12:00,58.4,53.3,30.10,NW,318,0.0,0.0,83,0.00,,---,0.00,VWS V14.00,2013-06-22 07:12:00,
2013-06-22 00:17:00,58.1,53.3,30.10,NW,318,0.0,1.0,84,0.00,,---,0.00,VWS V14.00,2013-06-22 07:17:00,
2013-06-22 00:22:00,57.9,53.1,30.10,NW,318,0.0,1.0,84,0.00,,---,0.00,VWS V14.00,2013-06-22 07:22:00,
2013-06-22 00:27:00,57.7,53.2,30.10,NW,318,0.0,1.0,85,0.00,,---,0.00,VWS V14.00,2013-06-22 07:27:00,
2013-06-22 00:32:00,57.6,53.1,30.10,NW,318,0.0,0.0,85,0.00,,---,0.00,VWS V14.00,2013-06-22 07:32:00,
2013-06-22 00:37:00,57.5,53.0,30.10,NW,318,0.0,0.0,85,0.00,,---,0.00,VWS V14.00,2013-06-22 07:37:00,
2013-06-22 00:42:00,57.4,52.9,30.10,NW,318,0.0,0.0,85,0.00,,---,0.00,VWS V14.00,2013-06-22 07:42:00,
2013-06-22 00:47:00,57.3,53.2,30.09,NW,318,0.0,1.0,86,0.00,,---,0.00,VWS V14.00,2013-06-22 07:47:00,
2013-06-22 00:52:00,57.1,53.0,30.09,NW,318,0.0,1.0,86,0.00,,---,0.00,VWS V14.00,2013-06-22 07:52:00,
2013-06-22 00:57:00,57.0,53.2,30.09,NW,318,1.0,1.0,87,0.00,,---,0.00,VWS V14.00,2013-06-22 07:57:00,
2013-06-22 01:02:00,56.8,53.0,30.09,NW,318,0.0,1.0,87,0.00,,---,0.00,VWS V14.00,2013-06-22 08:02:00,
2013-06-22 01:07:00,56.7,52.9,30.10,NW,318,0.0,1.0,87,0.00,,---,0.00,VWS V14.00,2013-06-22 08:07:00,
2013-06-22 01:12:00,56.5,52.7,30.10,NW,318,0.0,1.0,87,0.00,,---,0.00,VWS V14.00,2013-06-22 08:12:00,
2013-06-22 01:17:00,56.4,52.9,30.10,NW,318,0.0,1.0,88,0.00,,---,0.00,VWS V14.00,2013-06-22 08:17:00,
2013-06-22 01:22:00,56.3,53.1,30.10,NW,318,0.0,1.0,89,0.00,,---,0.00,VWS V14.00,2013-06-22 08:22:00,
2013-06-22 01:27:00,56.3,53.1,30.09,NW,318,0.0,1.0,89,0.00,,---,0.00,VWS V14.00,2013-06-22 08:27:00,
2013-06-22 01:32:00,56.1,52.9,30.09,NW,318,0.0,1.0,89,0.00,,---,0.00,VWS V14.00,2013-06-22 08:32:00,
2013-06-22 01:37:00,55.9,52.7,30.09,NW,318,0.0,1.0,89,0.00,,---,0.00,VWS V14.00,2013-06-22 08:37:00,
2013-06-22 01:42:00,55.9,53.0,30.09,NW,318,0.0,1.0,90,0.00,,---,0.00,VWS V14.00,2013-06-22 08:42:00,
2013-06-22 01:47:00,55.8,52.9,30.09,NW,318,0.0,1.0,90,0.00,,---,0.00,VWS V14.00,2013-06-22 08:47:00,
2013-06-22 01:52:00,55.6,52.7,30.09,NW,318,0.0,1.0,90,0.00,,---,0.00,VWS V14.00,2013-06-22 08:52:00,
2013-06-22 01:57:00,55.4,52.5,30.09,NW,318,0.0,1.0,90,0.00,,---,0.00,VWS V14.00,2013-06-22 08:57:00,
2013-06-22 02:02:00,55.3,52.4,30.09,NW,318,0.0,0.0,90,0.00,,---,0.00,VWS V14.00,2013-06-22 09:02:00,
2013-06-22 02:07:00,55.2,52.3,30.09,NW,318,0.0,0.0,90,0.00,,---,0.00,VWS V14.00,2013-06-22 09:07:00,
2013-06-22 02:12:00,55.0,52.1,30.09,NW,318,0.0,0.0,90,0.00,,---,0.00,VWS V14.00,2013-06-22 09:12:00,
2013-06-22 02:17:00,54.8,51.9,30.09,NW,318,0.0,0.0,90,0.00,,---,0.00,VWS V14.00,2013-06-22 09:17:00,
2013-06-22 02:22:00,54.6,52.0,30.09,NW,318,0.0,0.0,91,0.00,,---,0.00,VWS V14.00,2013-06-22 09:22:00,
2013-06-22 02:27:00,54.4,51.8,30.09,NW,318,0.0,0.0,91,0.00,,---,0.00,VWS V14.00,2013-06-22 09:27:00,
2013-06-22 02:32:00,54.3,51.7,30.09,NW,318,0.0,0.0,91,0.00,,---,0.00,VWS V14.00,2013-06-22 09:32:00,
2013-06-22 02:37:00,54.3,51.7,30.09,NW,318,0.0,1.0,91,0.00,,---,0.00,VWS V14.00,2013-06-22 09:37:00,
2013-06-22 02:42:00,54.2,51.9,30.09,NW,318,0.0,1.0,92,0.00,,---,0.00,VWS V14.00,2013-06-22 09:42:00,
2013-06-22 02:48:00,54.2,51.9,30.09,NW,318,0.0,1.0,92,0.00,,---,0.00,VWS V14.00,2013-06-22 09:48:00,
2013-06-22 02:53:00,54.1,51.8,30.09,NW,318,0.0,1.0,92,0.00,,---,0.00,VWS V14.00,2013-06-22 09:53:00,
2013-06-22 02:58:00,54.0,51.7,30.09,NW,318,0.0,1.0,92,0.00,,---,0.00,VWS V14.00,2013-06-22 09:58:00,
2013-06-22 03:03:00,53.9,51.6,30.09,NW,318,0.0,0.0,92,0.00,,---,0.00,VWS V14.00,2013-06-22 10:03:00,
2013-06-22 03:08:00,53.9,51.6,30.09,NW,318,0.0,0.0,92,0.00,,---,0.00,VWS V14.00,2013-06-22 10:08:00,
2013-06-22 03:13:00,53.8,51.8,30.08,NW,318,1.0,1.0,93,0.00,,---,0.00,VWS V14.00,2013-06-22 10:13:00,
2013-06-22 03:18:00,53.7,51.7,30.08,NW,318,0.0,1.0,93,0.00,,---,0.00,VWS V14.00,2013-06-22 10:18:00,
2013-06-22 03:23:00,53.6,51.6,30.08,NW,318,0.0,1.0,93,0.00,,---,0.00,VWS V14.00,2013-06-22 10:23:00,
2013-06-22 03:28:00,53.6,51.6,30.08,NW,318,0.0,1.0,93,0.00,,---,0.00,VWS V14.00,2013-06-22 10:28:00,
2013-06-22 03:33:00,53.5,51.5,30.08,NW,318,0.0,1.0,93,0.00,,---,0.00,VWS V14.00,2013-06-22 10:33:00,
2013-06-22 03:38:00,53.3,51.3,30.08,NW,318,0.0,1.0,93,0.00,,---,0.00,VWS V14.00,2013-06-22 10:38:00,
2013-06-22 03:43:00,53.1,51.1,30.08,NW,318,0.0,1.0,93,0.00,,---,0.00,VWS V14.00,2013-06-22 10:43:00,
2013-06-22 03:48:00,53.0,51.0,30.08,NW,318,0.0,1.0,93,0.00,,---,0.00,VWS V14.00,2013-06-22 10:48:00,
2013-06-22 03:53:00,52.8,50.8,30.08,NW,318,0.0,1.0,93,0.00,,---,0.00,VWS V14.00,2013-06-22 10:53:00,
2013-06-22 03:58:00,52.7,50.7,30.08,NW,318,0.0,1.0,93,0.00,,---,0.00,VWS V14.00,2013-06-22 10:58:00,
2013-06-22 04:03:00,52.5,50.5,30.08,NW,318,0.0,0.0,93,0.00,,---,0.00,VWS V14.00,2013-06-22 11:03:00,
2013-06-22 04:08:00,52.5,50.8,30.08,NW,318,0.0,1.0,94,0.00,,---,0.00,VWS V14.00,2013-06-22 11:08:00,
2013-06-22 04:13:00,52.4,50.7,30.08,NW,318,0.0,1.0,94,0.00,,---,0.00,VWS V14.00,2013-06-22 11:13:00,
2013-06-22 04:18:00,52.4,50.7,30.08,NW,318,0.0,1.0,94,0.00,,---,0.00,VWS V14.00,2013-06-22 11:18:00,
2013-06-22 04:23:00,52.3,50.6,30.07,NW,318,0.0,1.0,94,0.00,,---,0.00,VWS V14.00,2013-06-22 11:23:00,
2013-06-22 04:28:00,52.0,50.0,30.08,NW,318,1.0,1.0,93,0.00,,---,0.00,VWS V14.00,2013-06-22 11:28:00,
2013-06-22 04:33:00,51.8,49.8,30.08,NW,318,0.0,0.0,93,0.00,,---,0.00,VWS V14.00,2013-06-22 11:33:00,
2013-06-22 04:38:00,51.5,49.5,30.07,NW,318,0.0,1.0,93,0.00,,---,0.00,VWS V14.00,2013-06-22 11:38:00,
2013-06-22 04:43:00,51.3,49.3,30.08,NW,318,2.0,2.0,93,0.00,,---,0.00,VWS V14.00,2013-06-22 11:43:00,
2013-06-22 04:48:00,51.2,49.5,30.07,NW,318,1.0,2.0,94,0.00,,---,0.00,VWS V14.00,2013-06-22 11:48:00,
2013-06-22 04:53:00,51.0,49.3,30.07,NW,318,0.0,2.0,94,0.00,,---,0.00,VWS V14.00,2013-06-22 11:53:00,
2013-06-22 04:58:00,50.8,49.1,30.07,NW,318,0.0,2.0,94,0.00,,---,0.00,VWS V14.00,2013-06-22 11:58:00,
2013-06-22 05:03:00,50.6,48.7,30.08,NW,318,0.0,0.0,93,0.00,,---,0.00,VWS V14.00,2013-06-22 12:03:00,
2013-06-22 05:08:00,50.4,48.7,30.08,NW,318,0.0,1.0,94,0.00,,---,0.00,VWS V14.00,2013-06-22 12:08:00,
2013-06-22 05:13:00,50.3,48.6,30.08,NW,318,0.0,1.0,94,0.00,,---,0.00,VWS V14.00,2013-06-22 12:13:00,
2013-06-22 05:18:00,50.4,48.7,30.07,NW,318,0.0,1.0,94,0.00,,---,0.00,VWS V14.00,2013-06-22 12:18:00,
2013-06-22 05:23:00,50.6,49.2,30.08,West,267,0.0,2.0,95,0.00,,---,0.00,VWS V14.00,2013-06-22 12:23:00,
2013-06-22 05:28:00,50.5,49.1,30.08,WSW,250,0.0,2.0,95,0.00,,---,0.00,VWS V14.00,2013-06-22 12:28:00,
2013-06-22 05:33:00,50.2,48.5,30.08,WSW,250,0.0,1.0,94,0.00,,---,0.00,VWS V14.00,2013-06-22 12:33:00,
2013-06-22 05:38:00,50.0,48.3,30.08,WSW,250,0.0,1.0,94,0.00,,---,0.00,VWS V14.00,2013-06-22 12:38:00,
2013-06-22 05:43:00,49.7,48.0,30.08,WSW,250,1.0,1.0,94,0.00,,---,0.00,VWS V14.00,2013-06-22 12:43:00,
2013-06-22 05:48:00,49.4,47.8,30.08,WSW,250,0.0,1.0,94,0.00,,---,0.00,VWS V14.00,2013-06-22 12:48:00,
2013-06-22 05:53:00,49.3,47.7,30.08,WSW,250,0.0,1.0,94,0.00,,---,0.00,VWS V14.00,2013-06-22 12:53:00,
2013-06-22 05:58:00,49.2,47.8,30.08,WSW,250,0.0,1.0,95,0.00,,---,0.00,VWS V14.00,2013-06-22 12:58:00,
2013-06-22 06:03:00,49.3,47.9,30.08,WSW,250,1.0,1.0,95,0.00,,---,0.00,VWS V14.00,2013-06-22 13:03:00,
2013-06-22 06:08:00,49.3,47.9,30.07,WSW,250,1.0,2.0,95,0.00,,---,0.00,VWS V14.00,2013-06-22 13:08:00,
2013-06-22 06:13:00,49.4,48.0,30.07,WSW,250,0.0,2.0,95,0.00,,---,0.00,VWS V14.00,2013-06-22 13:13:00,
2013-06-22 06:18:00,49.5,48.1,30.07,WSW,250,0.0,2.0,95,0.00,,---,0.00,VWS V14.00,2013-06-22 13:18:00,
2013-06-22 06:23:00,49.6,48.2,30.07,WSW,250,0.0,2.0,95,0.00,,---,0.00,VWS V14.00,2013-06-22 13:23:00,
2013-06-22 06:28:00,49.6,48.2,30.07,WSW,250,0.0,2.0,95,0.00,,---,0.00,VWS V14.00,2013-06-22 13:28:00,
2013-06-22 06:33:00,49.6,48.2,30.07,WSW,250,0.0,2.0,95,0.00,,---,0.00,VWS V14.00,2013-06-22 13:33:00,
2013-06-22 06:38:00,49.6,48.2,30.08,WSW,250,0.0,2.0,95,0.00,,---,0.00,VWS V14.00,2013-06-22 13:38:00,
2013-06-22 06:43:00,49.6,48.2,30.07,WSW,250,0.0,2.0,95,0.00,,---,0.00,VWS V14.00,2013-06-22 13:43:00,
2013-06-22 06:48:00,49.8,48.7,30.07,WSW,250,0.0,2.0,96,0.00,,---,0.00,VWS V14.00,2013-06-22 13:48:00,
2013-06-22 06:53:00,49.9,48.5,30.07,WSW,250,0.0,2.0,95,0.00,,---,0.00,VWS V14.00,2013-06-22 13:53:00,
2013-06-22 06:58:00,50.0,48.6,30.08,WSW,250,0.0,2.0,95,0.00,,---,0.00,VWS V14.00,2013-06-22 13:58:00,
2013-06-22 07:03:00,50.4,49.3,30.07,WSW,250,0.0,0.0,96,0.00,,---,0.00,VWS V14.00,2013-06-22 14:03:00,
2013-06-22 07:08:00,50.8,49.7,30.07,WSW,250,0.0,0.0,96,0.00,,---,0.00,VWS V14.00,2013-06-22 14:08:00,
2013-06-22 07:13:00,51.2,50.1,30.07,WSW,250,2.0,2.0,96,0.00,,---,0.00,VWS V14.00,2013-06-22 14:13:00,
2013-06-22 07:18:00,51.7,50.6,30.07,WSW,250,0.0,2.0,96,0.00,,---,0.00,VWS V14.00,2013-06-22 14:18:00,
2013-06-22 07:23:00,52.1,51.0,30.07,WSW,250,0.0,2.0,96,0.00,,---,0.00,VWS V14.00,2013-06-22 14:23:00,
2013-06-22 07:28:00,52.7,51.6,30.07,WSW,240,0.0,2.0,96,0.00,,---,0.00,VWS V14.00,2013-06-22 14:28:00,
2013-06-22 07:33:00,53.3,51.3,30.07,SSW,205,0.0,0.0,93,0.00,,---,0.00,VWS V14.00,2013-06-22 14:33:00,
2013-06-22 07:38:00,53.8,52.1,30.07,SSW,205,0.0,0.0,94,0.00,,---,0.00,VWS V14.00,2013-06-22 14:38:00,
2013-06-22 07:43:00,54.2,51.9,30.06,ESE,120,0.0,2.0,92,0.00,,---,0.00,VWS V14.00,2013-06-22 14:43:00,
2013-06-22 07:48:00,54.6,52.0,30.06,ESE,119,0.0,2.0,91,0.00,,---,0.00,VWS V14.00,2013-06-22 14:48:00,
2013-06-22 07:53:00,55.0,52.1,30.06,South,178,2.0,2.0,90,0.00,,---,0.00,VWS V14.00,2013-06-22 14:53:00,
2013-06-22 07:58:00,56.0,51.9,30.06,SSE,168,2.0,4.0,86,0.00,,---,0.00,VWS V14.00,2013-06-22 14:58:00,
2013-06-22 08:03:00,56.7,52.6,30.06,SSW,194,0.0,1.0,86,0.00,,---,0.00,VWS V14.00,2013-06-22 15:03:00,
2013-06-22 08:08:00,57.2,52.1,30.06,SE,146,0.0,2.0,83,0.00,,---,0.00,VWS V14.00,2013-06-22 15:08:00,
2013-06-22 08:13:00,57.6,51.8,30.06,SSW,198,3.0,4.0,81,0.00,,---,0.00,VWS V14.00,2013-06-22 15:13:00,
2013-06-22 08:18:00,57.9,52.5,30.05,SSW,206,3.0,4.0,82,0.00,,---,0.00,VWS V14.00,2013-06-22 15:18:00,
2013-06-22 08:23:00,58.3,52.2,30.06,South,174,4.0,5.0,80,0.00,,---,0.00,VWS V14.00,2013-06-22 15:23:00,
2013-06-22 08:28:00,58.5,52.0,30.06,South,190,3.0,6.0,79,0.00,,---,0.00,VWS V14.00,2013-06-22 15:28:00,
2013-06-22 08:33:00,58.6,52.1,30.05,South,191,2.0,4.0,79,0.00,,---,0.00,VWS V14.00,2013-06-22 15:33:00,
2013-06-22 08:38:00,58.7,52.2,30.05,South,188,0.0,4.0,79,0.00,,---,0.00,VWS V14.00,2013-06-22 15:38:00,
2013-06-22 08:43:00,58.9,52.4,30.05,SSW,205,1.0,4.0,79,0.00,,---,0.00,VWS V14.00,2013-06-22 15:43:00,
2013-06-22 08:48:00,59.1,52.6,30.05,SSE,152,0.0,4.0,79,0.00,,---,0.00,VWS V14.00,2013-06-22 15:48:00,
2013-06-22 08:53:00,59.4,53.2,30.05,SSW,208,2.0,5.0,80,0.00,,---,0.00,VWS V14.00,2013-06-22 15:53:00,
2013-06-22 08:58:00,59.7,53.2,30.05,SSW,192,2.0,5.0,79,0.00,,---,0.00,VWS V14.00,2013-06-22 15:58:00,
2013-06-22 09:03:00,60.0,53.5,30.05,South,188,2.0,4.0,79,0.00,,---,0.00,VWS V14.00,2013-06-22 16:03:00,
2013-06-22 09:08:00,60.3,53.4,30.05,SSW,198,2.0,4.0,78,0.00,,---,0.00,VWS V14.00,2013-06-22 16:08:00,
2013-06-22 09:13:00,60.5,54.3,30.05,North,350,0.0,4.0,80,0.00,,---,0.00,VWS V14.00,2013-06-22 16:13:00,
2013-06-22 09:18:00,60.7,53.8,30.05,SSE,150,4.0,6.0,78,0.00,,---,0.00,VWS V14.00,2013-06-22 16:18:00,
2013-06-22 09:23:00,60.7,53.1,30.04,SE,139,2.0,6.0,76,0.00,,---,0.00,VWS V14.00,2013-06-22 16:23:00,
2013-06-22 09:28:00,60.8,53.5,30.04,SE,124,2.0,6.0,77,0.00,,---,0.00,VWS V14.00,2013-06-22 16:28:00,
2013-06-22 09:34:00,61.2,54.3,30.04,SSE,163,1.0,2.0,78,0.00,,---,0.00,VWS V14.00,2013-06-22 16:34:00,
2013-06-22 09:39:00,61.6,54.3,30.04,South,171,2.0,5.0,77,0.00,,---,0.00,VWS V14.00,2013-06-22 16:39:00,
2013-06-22 09:44:00,62.0,54.7,30.04,SSW,192,0.0,5.0,77,0.00,,---,0.00,VWS V14.00,2013-06-22 16:44:00,
2013-06-22 09:49:00,62.4,54.4,30.04,SSE,160,1.0,5.0,75,0.00,,---,0.00,VWS V14.00,2013-06-22 16:49:00,
2013-06-22 09:54:00,62.6,53.8,30.04,ESE,110,1.0,5.0,73,0.00,,---,0.00,VWS V14.00,2013-06-22 16:54:00,
2013-06-22 09:59:00,63.0,54.6,30.03,SSW,200,3.0,5.0,74,0.00,,---,0.00,VWS V14.00,2013-06-22 16:59:00,
2013-06-22 10:04:00,63.1,54.3,30.03,SSE,148,2.0,4.0,73,0.00,,---,0.00,VWS V14.00,2013-06-22 17:04:00,
2013-06-22 10:09:00,63.2,54.0,30.04,SE,146,1.0,5.0,72,0.00,,---,0.00,VWS V14.00,2013-06-22 17:09:00,
2013-06-22 10:14:00,63.4,54.6,30.03,SSE,161,1.0,5.0,73,0.00,,---,0.00,VWS V14.00,2013-06-22 17:14:00,
2013-06-22 10:19:00,63.7,54.5,30.03,South,178,1.0,6.0,72,0.00,,---,0.00,VWS V14.00,2013-06-22 17:19:00,
2013-06-22 10:24:00,64.0,54.4,30.03,SE,136,1.0,6.0,71,0.00,,---,0.00,VWS V14.00,2013-06-22 17:24:00,
2013-06-22 10:29:00,64.1,53.7,30.03,South,169,0.0,6.0,69,0.00,,---,0.00,VWS V14.00,2013-06-22 17:29:00,
2013-06-22 10:34:00,64.5,53.7,30.03,ENE,57,4.0,4.0,68,0.00,,---,0.00,VWS V14.00,2013-06-22 17:34:00,
2013-06-22 10:39:00,64.5,54.5,30.03,ENE,62,0.0,4.0,70,0.00,,---,0.00,VWS V14.00,2013-06-22 17:39:00,
2013-06-22 10:44:00,64.5,53.3,30.03,SW,225,1.0,6.0,67,0.00,,---,0.00,VWS V14.00,2013-06-22 17:44:00,
2013-06-22 10:49:00,64.7,53.5,30.03,NE,52,2.0,6.0,67,0.00,,---,0.00,VWS V14.00,2013-06-22 17:49:00,
2013-06-22 10:54:00,65.0,55.4,30.02,ENE,62,1.0,6.0,71,0.00,,---,0.00,VWS V14.00,2013-06-22 17:54:00,
2013-06-22 10:59:00,65.4,54.2,30.02,ENE,57,0.0,6.0,67,0.00,,---,0.00,VWS V14.00,2013-06-22 17:59:00,
2013-06-22 11:04:00,65.7,54.5,30.03,SSE,151,5.0,6.0,67,0.00,,---,0.00,VWS V14.00,2013-06-22 18:04:00,
2013-06-22 11:09:00,65.9,54.2,30.02,NE,46,3.0,6.0,66,0.00,,---,0.00,VWS V14.00,2013-06-22 18:09:00,
2013-06-22 11:14:00,66.2,54.9,30.02,South,191,0.0,6.0,67,0.00,,---,0.00,VWS V14.00,2013-06-22 18:14:00,
2013-06-22 11:19:00,66.5,54.8,30.02,South,171,0.0,6.0,66,0.00,,---,0.00,VWS V14.00,2013-06-22 18:19:00,
2013-06-22 11:24:00,66.7,55.0,30.01,NNW,336,1.0,6.0,66,0.00,,---,0.00,VWS V14.00,2013-06-22 18:24:00,
2013-06-22 11:29:00,66.9,55.2,30.02,SSE,149,1.0,6.0,66,0.00,,---,0.00,VWS V14.00,2013-06-22 18:29:00,
2013-06-22 11:34:00,66.9,54.8,30.01,South,169,1.0,4.0,65,0.00,,---,0.00,VWS V14.00,2013-06-22 18:34:00,
2013-06-22 11:39:00,67.1,55.0,30.01,South,182,1.0,4.0,65,0.00,,---,0.00,VWS V14.00,2013-06-22 18:39:00,
2013-06-22 11:44:00,67.3,54.7,30.01,SE,140,1.0,4.0,64,0.00,,---,0.00,VWS V14.00,2013-06-22 18:44:00,
2013-06-22 11:49:00,67.7,55.5,30.01,SSW,213,0.0,4.0,65,0.00,,---,0.00,VWS V14.00,2013-06-22 18:49:00,
2013-06-22 11:54:00,68.3,55.7,30.01,ESE,114,0.0,4.0,64,0.00,,---,0.00,VWS V14.00,2013-06-22 18:54:00,
2013-06-22 11:59:00,68.6,55.1,30.01,SSW,192,0.0,4.0,62,0.00,,---,0.00,VWS V14.00,2013-06-22 18:59:00,
2013-06-22 12:04:00,68.9,55.4,30.01,SSE,156,5.0,5.0,62,0.00,,---,0.00,VWS V14.00,2013-06-22 19:04:00,
2013-06-22 12:09:00,68.9,54.5,30.00,SE,138,5.0,6.0,60,0.00,,---,0.00,VWS V14.00,2013-06-22 19:09:00,
2013-06-22 12:14:00,68.8,54.8,30.00,SW,230,1.0,6.0,61,0.00,,---,0.00,VWS V14.00,2013-06-22 19:14:00,
2013-06-22 12:19:00,69.3,54.4,30.00,SSE,166,0.0,6.0,59,0.00,,---,0.00,VWS V14.00,2013-06-22 19:19:00,
2013-06-22 12:24:00,69.9,54.5,30.00,East,101,0.0,6.0,58,0.00,,---,0.00,VWS V14.00,2013-06-22 19:24:00,
2013-06-22 12:29:00,70.5,53.6,30.00,SSE,161,5.0,6.0,55,0.00,,---,0.00,VWS V14.00,2013-06-22 19:29:00,
2013-06-22 12:34:00,70.6,52.1,29.99,ENE,66,3.0,4.0,52,0.00,,---,0.00,VWS V14.00,2013-06-22 19:34:00,
2013-06-22 12:39:00,70.7,53.3,29.99,SSE,155,2.0,5.0,54,0.00,,---,0.00,VWS V14.00,2013-06-22 19:39:00,
2013-06-22 12:44:00,70.7,52.8,29.99,South,183,0.0,5.0,53,0.00,,---,0.00,VWS V14.00,2013-06-22 19:44:00,
2013-06-22 12:49:00,71.1,52.6,29.99,South,174,2.0,5.0,52,0.00,,---,0.00,VWS V14.00,2013-06-22 19:49:00,
2013-06-22 12:54:00,71.3,53.3,29.99,NE,49,3.0,5.0,53,0.00,,---,0.00,VWS V14.00,2013-06-22 19:54:00,
2013-06-22 12:59:00,71.7,53.2,29.99,NE,52,0.0,5.0,52,0.00,,---,0.00,VWS V14.00,2013-06-22 19:59:00,
2013-06-22 13:04:00,71.8,53.2,29.98,SSE,153,4.0,4.0,52,0.00,,---,0.00,VWS V14.00,2013-06-22 20:04:00,
2013-06-22 13:09:00,71.7,53.7,29.98,SSE,147,0.0,4.0,53,0.00,,---,0.00,VWS V14.00,2013-06-22 20:09:00,
2013-06-22 13:14:00,71.9,53.9,29.98,SSE,160,1.0,4.0,53,0.00,,---,0.00,VWS V14.00,2013-06-22 20:14:00,
2013-06-22 13:19:00,72.3,51.0,29.98,South,190,2.0,4.0,47,0.00,,---,0.00,VWS V14.00,2013-06-22 20:19:00,
2013-06-22 13:24:00,72.5,51.2,29.97,SSE,154,1.0,6.0,47,0.00,,---,0.00,VWS V14.00,2013-06-22 20:24:00,
2013-06-22 13:29:00,72.3,49.8,29.97,SE,126,4.0,11.0,45,0.00,,---,0.00,VWS V14.00,2013-06-22 20:29:00,
2013-06-22 13:34:00,72.5,51.2,29.97,SE,145,4.0,4.0,47,0.00,,---,0.00,VWS V14.00,2013-06-22 20:34:00,
2013-06-22 13:39:00,72.8,51.4,29.97,SE,144,1.0,5.0,47,0.00,,---,0.00,VWS V14.00,2013-06-22 20:39:00,
2013-06-22 13:44:00,73.1,51.7,29.97,SSW,198,3.0,6.0,47,0.00,,---,0.00,VWS V14.00,2013-06-22 20:44:00,
2013-06-22 13:49:00,73.2,51.2,29.96,SSE,161,0.0,8.0,46,0.00,,---,0.00,VWS V14.00,2013-06-22 20:49:00,
2013-06-22 13:54:00,73.4,50.8,29.96,SSW,202,2.0,8.0,45,0.00,,---,0.00,VWS V14.00,2013-06-22 20:54:00,
2013-06-22 13:59:00,73.7,50.5,29.96,SSW,194,3.0,8.0,44,0.00,,---,0.00,VWS V14.00,2013-06-22 20:59:00,
2013-06-22 14:04:00,73.8,47.3,29.96,ESE,122,1.0,6.0,39,0.00,,---,0.00,VWS V14.00,2013-06-22 21:04:00,
2013-06-22 14:09:00,73.8,49.3,29.96,South,185,4.0,6.0,42,0.00,,---,0.00,VWS V14.00,2013-06-22 21:09:00,
2013-06-22 14:14:00,73.8,49.3,29.96,ENE,67,0.0,6.0,42,0.00,,---,0.00,VWS V14.00,2013-06-22 21:14:00,
2013-06-22 14:19:00,73.8,49.3,29.95,SSW,194,3.0,6.0,42,0.00,,---,0.00,VWS V14.00,2013-06-22 21:19:00,
2013-06-22 14:24:00,74.1,48.3,29.95,SSE,167,5.0,7.0,40,0.00,,---,0.00,VWS V14.00,2013-06-22 21:24:00,
2013-06-22 14:29:00,74.3,48.4,29.95,SSE,157,0.0,7.0,40,0.00,,---,0.00,VWS V14.00,2013-06-22 21:29:00,
2013-06-22 14:34:00,74.6,50.0,29.95,South,169,2.0,6.0,42,0.00,,---,0.00,VWS V14.00,2013-06-22 21:34:00,
2013-06-22 14:39:00,74.9,49.6,29.94,SSE,168,5.0,6.0,41,0.00,,---,0.00,VWS V14.00,2013-06-22 21:39:00,
2013-06-22 14:44:00,75.1,49.2,29.94,NW,316,2.0,6.0,40,0.00,,---,0.00,VWS V14.00,2013-06-22 21:44:00,
2013-06-22 14:49:00,75.6,50.3,29.94,South,190,3.0,6.0,41,0.00,,---,0.00,VWS V14.00,2013-06-22 21:49:00,
2013-06-22 14:55:00,75.6,50.9,29.93,South,190,2.0,7.0,42,0.00,,---,0.00,VWS V14.00,2013-06-22 21:55:00,
2013-06-22 15:00:00,75.7,49.0,29.93,SSE,163,0.0,8.0,39,0.00,,---,0.00,VWS V14.00,2013-06-22 22:00:00,
2013-06-22 15:04:00,76.1,46.5,29.93,South,188,6.0,6.0,35,0.00,,---,0.00,VWS V14.00,2013-06-22 22:04:00,
2013-06-22 15:10:00,76.1,48.0,29.93,SSW,197,0.0,6.0,37,0.00,,---,0.00,VWS V14.00,2013-06-22 22:10:00,
2013-06-22 15:15:00,76.2,47.3,29.93,South,179,2.0,6.0,36,0.00,,---,0.00,VWS V14.00,2013-06-22 22:15:00,
2013-06-22 15:20:00,76.4,47.5,29.92,SSE,148,6.0,6.0,36,0.00,,---,0.00,VWS V14.00,2013-06-22 22:20:00,
2013-06-22 15:25:00,76.6,49.1,29.92,SW,215,0.0,6.0,38,0.00,,---,0.00,VWS V14.00,2013-06-22 22:25:00,
2013-06-22 15:30:00,77.0,48.0,29.92,South,169,2.0,6.0,36,0.00,,---,0.00,VWS V14.00,2013-06-22 22:30:00,
2013-06-22 15:35:00,76.7,46.2,29.92,SW,222,2.0,6.0,34,0.00,,---,0.00,VWS V14.00,2013-06-22 22:35:00,
2013-06-22 15:40:00,76.6,47.7,29.92,South,186,3.0,6.0,36,0.00,,---,0.00,VWS V14.00,2013-06-22 22:40:00,
2013-06-22 15:45:00,76.8,47.8,29.92,East,100,1.0,6.0,36,0.00,,---,0.00,VWS V14.00,2013-06-22 22:45:00,
2013-06-22 15:50:00,77.1,46.6,29.92,SSE,153,1.0,6.0,34,0.00,,---,0.00,VWS V14.00,2013-06-22 22:50:00,
2013-06-22 15:55:00,77.1,48.1,29.92,South,178,4.0,6.0,36,0.00,,---,0.00,VWS V14.00,2013-06-22 22:55:00,
2013-06-22 16:00:00,76.7,46.2,29.92,South,169,1.0,6.0,34,0.00,,---,0.00,VWS V14.00,2013-06-22 23:00:00,
2013-06-22 16:05:00,76.5,47.6,29.92,South,185,1.0,2.0,36,0.00,,---,0.00,VWS V14.00,2013-06-22 23:05:00,
2013-06-22 16:10:00,76.6,46.9,29.91,SSE,148,2.0,3.0,35,0.00,,---,0.00,VWS V14.00,2013-06-22 23:10:00,
2013-06-22 16:15:00,76.7,46.2,29.91,South,182,1.0,8.0,34,0.00,,---,0.00,VWS V14.00,2013-06-22 23:15:00,
2013-06-22 16:20:00,76.9,48.7,29.91,ESE,119,1.0,8.0,37,0.00,,---,0.00,VWS V14.00,2013-06-22 23:20:00,
2013-06-22 16:25:00,77.3,46.8,29.90,NE,51,1.0,8.0,34,0.00,,---,0.00,VWS V14.00,2013-06-22 23:25:00,
2013-06-22 16:30:00,77.9,48.1,29.90,ENE,63,1.0,8.0,35,0.00,,---,0.00,VWS V14.00,2013-06-22 23:30:00,
2013-06-22 16:35:00,78.4,47.7,29.90,South,182,4.0,5.0,34,0.00,,---,0.00,VWS V14.00,2013-06-22 23:35:00,
2013-06-22 16:40:00,78.6,47.9,29.90,South,191,0.0,5.0,34,0.00,,---,0.00,VWS V14.00,2013-06-22 23:40:00,
2013-06-22 16:45:00,78.7,46.4,29.90,South,172,2.0,5.0,32,0.00,,---,0.00,VWS V14.00,2013-06-22 23:45:00,
2013-06-22 16:50:00,78.7,50.3,29.89,ENE,72,2.0,5.0,37,0.00,,---,0.00,VWS V14.00,2013-06-22 23:50:00,
2013-06-22 16:55:00,78.7,49.5,29.89,SSE,166,1.0,5.0,36,0.00,,---,0.00,VWS V14.00,2013-06-22 23:55:00,
2013-06-22 17:00:00,78.7,47.2,29.89,South,189,0.0,5.0,33,0.00,,---,0.00,VWS V14.00,2013-06-23 00:00:00,
2013-06-22 17:05:00,78.7,48.0,29.89,SSE,159,1.0,4.0,34,0.00,,---,0.00,VWS V14.00,2013-06-23 00:05:00,
2013-06-22 17:10:00,78.7,47.2,29.89,SE,137,1.0,4.0,33,0.00,,---,0.00,VWS V14.00,2013-06-23 00:10:00,
2013-06-22 17:15:00,78.9,46.6,29.89,South,178,2.0,4.0,32,0.00,,---,0.00,VWS V14.00,2013-06-23 00:15:00,
2013-06-22 17:20:00,78.9,47.4,29.89,NNE,12,3.0,5.0,33,0.00,,---,0.00,VWS V14.00,2013-06-23 00:20:00,
2013-06-22 17:25:00,79.1,48.3,29.88,ENE,66,1.0,5.0,34,0.00,,---,0.00,VWS V14.00,2013-06-23 00:25:00,
2013-06-22 17:30:00,79.3,47.7,29.88,South,172,1.0,5.0,33,0.00,,---,0.00,VWS V14.00,2013-06-23 00:30:00,
2013-06-22 17:35:00,79.1,49.1,29.88,SSE,166,4.0,4.0,35,0.00,,---,0.00,VWS V14.00,2013-06-23 00:35:00,
2013-06-22 17:40:00,78.6,48.7,29.88,SSW,194,1.0,5.0,35,0.00,,---,0.00,VWS V14.00,2013-06-23 00:40:00,
2013-06-22 17:45:00,78.6,47.1,29.88,SSE,164,4.0,6.0,33,0.00,,---,0.00,VWS V14.00,2013-06-23 00:45:00,
2013-06-22 17:50:00,78.3,46.0,29.87,South,186,0.0,6.0,32,0.00,,---,0.00,VWS V14.00,2013-06-23 00:50:00,
2013-06-22 17:55:00,78.2,48.3,29.87,South,189,0.0,6.0,35,0.00,,---,0.00,VWS V14.00,2013-06-23 00:55:00,
2013-06-22 18:00:00,78.4,49.3,29.87,ESE,117,0.0,6.0,36,0.00,,---,0.00,VWS V14.00,2013-06-23 01:00:00,
2013-06-22 18:05:00,78.6,45.5,29.87,NE,46,1.0,3.0,31,0.00,,---,0.00,VWS V14.00,2013-06-23 01:05:00,
2013-06-22 18:10:00,78.3,48.4,29.86,ENE,65,0.0,4.0,35,0.00,,---,0.00,VWS V14.00,2013-06-23 01:10:00,
2013-06-22 18:15:00,78.5,43.6,29.86,SSE,158,1.0,4.0,29,0.00,,---,0.00,VWS V14.00,2013-06-23 01:15:00,
2013-06-22 18:20:00,78.3,42.5,29.86,SSE,161,0.0,4.0,28,0.00,,---,0.00,VWS V14.00,2013-06-23 01:20:00,
2013-06-22 18:25:00,78.3,43.5,29.86,SSE,161,0.0,4.0,29,0.00,,---,0.00,VWS V14.00,2013-06-23 01:25:00,
2013-06-22 18:30:00,78.4,52.1,29.86,SSE,161,0.0,4.0,40,0.00,,---,0.00,VWS V14.00,2013-06-23 01:30:00,
2013-06-22 18:35:00,78.2,51.9,29.86,SSE,148,0.0,2.0,40,0.00,,---,0.00,VWS V14.00,2013-06-23 01:35:00,
2013-06-22 18:40:00,77.9,42.2,29.86,SSE,151,0.0,2.0,28,0.00,,---,0.00,VWS V14.00,2013-06-23 01:40:00,
2013-06-22 18:45:00,77.8,45.6,29.86,SSE,148,0.0,2.0,32,0.00,,---,0.00,VWS V14.00,2013-06-23 01:45:00,
2013-06-22 18:50:00,77.6,45.4,29.86,SSW,205,2.0,3.0,32,0.00,,---,0.00,VWS V14.00,2013-06-23 01:50:00,
2013-06-22 18:55:00,77.4,41.8,29.85,SSW,206,0.0,3.0,28,0.00,,---,0.00,VWS V14.00,2013-06-23 01:55:00,
2013-06-22 19:00:00,77.2,49.7,29.85,SSW,205,0.0,3.0,38,0.00,,---,0.00,VWS V14.00,2013-06-23 02:00:00,
2013-06-22 19:05:00,76.9,52.1,29.85,ESE,107,0.0,1.0,42,0.00,,---,0.00,VWS V14.00,2013-06-23 02:05:00,
2013-06-22 19:10:00,76.3,50.2,29.85,ESE,107,0.0,1.0,40,0.00,,---,0.00,VWS V14.00,2013-06-23 02:10:00,
2013-06-22 19:15:00,75.7,49.0,29.85,ESE,107,0.0,1.0,39,0.00,,---,0.00,VWS V14.00,2013-06-23 02:15:00,
2013-06-22 19:20:00,75.1,54.7,29.85,ESE,107,0.0,1.0,49,0.00,,---,0.00,VWS V14.00,2013-06-23 02:20:00,
2013-06-22 19:25:00,74.7,53.2,29.85,ESE,107,0.0,1.0,47,0.00,,---,0.00,VWS V14.00,2013-06-23 02:25:00,
2013-06-22 19:30:00,74.2,54.4,29.85,ESE,107,0.0,1.0,50,0.00,,---,0.00,VWS V14.00,2013-06-23 02:30:00,
2013-06-22 19:35:00,73.7,53.4,29.85,ESE,107,0.0,0.0,49,0.00,,---,0.00,VWS V14.00,2013-06-23 02:35:00,
2013-06-22 19:40:00,73.3,55.2,29.85,ESE,107,0.0,0.0,53,0.00,,---,0.00,VWS V14.00,2013-06-23 02:40:00,
2013-06-22 19:45:00,72.9,56.3,29.86,ESE,107,0.0,0.0,56,0.00,,---,0.00,VWS V14.00,2013-06-23 02:45:00,
2013-06-22 19:50:00,72.5,55.4,29.85,ESE,107,0.0,0.0,55,0.00,,---,0.00,VWS V14.00,2013-06-23 02:50:00,
2013-06-22 19:55:00,72.1,56.5,29.85,ESE,107,0.0,0.0,58,0.00,,---,0.00,VWS V14.00,2013-06-23 02:55:00,
2013-06-22 20:00:00,71.8,57.6,29.85,ESE,107,0.0,0.0,61,0.00,,---,0.00,VWS V14.00,2013-06-23 03:00:00,
2013-06-22 20:05:00,71.5,53.0,29.85,ESE,107,0.0,0.0,52,0.00,,---,0.00,VWS V14.00,2013-06-23 03:05:00,
2013-06-22 20:10:00,71.3,53.3,29.85,ESE,107,0.0,0.0,53,0.00,,---,0.00,VWS V14.00,2013-06-23 03:10:00,
2013-06-22 20:15:00,71.2,56.2,29.85,ESE,107,0.0,0.0,59,0.00,,---,0.00,VWS V14.00,2013-06-23 03:15:00,
2013-06-22 20:21:00,71.0,55.5,29.85,ESE,107,0.0,0.0,58,0.00,,---,0.00,VWS V14.00,2013-06-23 03:21:00,
2013-06-22 20:26:00,70.7,51.2,29.85,ESE,107,0.0,0.0,50,0.00,,---,0.00,VWS V14.00,2013-06-23 03:26:00,
2013-06-22 20:31:00,70.4,48.7,29.85,ESE,107,0.0,0.0,46,0.00,,---,0.00,VWS V14.00,2013-06-23 03:31:00,
2013-06-22 20:36:00,70.4,48.1,29.85,ESE,107,0.0,0.0,45,0.00,,---,0.00,VWS V14.00,2013-06-23 03:36:00,
2013-06-22 20:41:00,70.3,53.4,29.85,ESE,107,0.0,0.0,55,0.00,,---,0.00,VWS V14.00,2013-06-23 03:41:00,
2013-06-22 20:46:00,70.2,52.8,29.85,ESE,107,0.0,0.0,54,0.00,,---,0.00,VWS V14.00,2013-06-23 03:46:00,
2013-06-22 20:51:00,70.0,49.4,29.85,ESE,107,0.0,0.0,48,0.00,,---,0.00,VWS V14.00,2013-06-23 03:51:00,
2013-06-22 20:56:00,69.8,49.8,29.85,ESE,107,0.0,0.0,49,0.00,,---,0.00,VWS V14.00,2013-06-23 03:56:00,
2013-06-22 21:01:00,69.8,53.4,29.85,ESE,107,0.0,0.0,56,0.00,,---,0.00,VWS V14.00,2013-06-23 04:01:00,
2013-06-22 21:06:00,69.7,53.3,29.85,ESE,107,0.0,0.0,56,0.00,,---,0.00,VWS V14.00,2013-06-23 04:06:00,
2013-06-22 21:11:00,69.5,53.1,29.85,ESE,107,0.0,0.0,56,0.00,,---,0.00,VWS V14.00,2013-06-23 04:11:00,
2013-06-22 21:16:00,69.4,53.5,29.85,ESE,107,0.0,0.0,57,0.00,,---,0.00,VWS V14.00,2013-06-23 04:16:00,
2013-06-22 21:21:00,69.2,55.2,29.85,ESE,107,0.0,0.0,61,0.00,,---,0.00,VWS V14.00,2013-06-23 04:21:00,
2013-06-22 21:26:00,69.2,55.2,29.85,ESE,107,0.0,0.0,61,0.00,,---,0.00,VWS V14.00,2013-06-23 04:26:00,
2013-06-22 21:31:00,69.0,55.5,29.85,ESE,107,0.0,0.0,62,0.00,,---,0.00,VWS V14.00,2013-06-23 04:31:00,
2013-06-22 21:37:00,69.0,55.0,29.85,ESE,110,0.0,2.0,61,0.00,,---,0.00,VWS V14.00,2013-06-23 04:37:00,
2013-06-22 21:42:00,69.0,54.5,29.86,ESE,110,0.0,2.0,60,0.00,,---,0.00,VWS V14.00,2013-06-23 04:42:00,
2013-06-22 21:47:00,68.9,54.5,29.86,ESE,107,0.0,2.0,60,0.00,,---,0.00,VWS V14.00,2013-06-23 04:47:00,
2013-06-22 21:52:00,68.8,54.8,29.86,ESE,107,0.0,2.0,61,0.00,,---,0.00,VWS V14.00,2013-06-23 04:52:00,
2013-06-22 21:57:00,68.6,54.6,29.86,ESE,107,0.0,2.0,61,0.00,,---,0.00,VWS V14.00,2013-06-23 04:57:00,
2013-06-22 22:02:00,68.5,55.0,29.86,ESE,107,0.0,2.0,62,0.00,,---,0.00,VWS V14.00,2013-06-23 05:02:00,
2013-06-22 22:07:00,68.4,55.8,29.86,ESE,107,0.0,0.0,64,0.00,,---,0.00,VWS V14.00,2013-06-23 05:07:00,
2013-06-22 22:12:00,68.3,55.7,29.86,ESE,107,0.0,0.0,64,0.00,,---,0.00,VWS V14.00,2013-06-23 05:12:00,
2013-06-22 22:17:00,68.1,54.6,29.86,ESE,107,0.0,0.0,62,0.00,,---,0.00,VWS V14.00,2013-06-23 05:17:00,
2013-06-22 22:22:00,67.9,54.8,29.86,ESE,107,0.0,0.0,63,0.00,,---,0.00,VWS V14.00,2013-06-23 05:22:00,
2013-06-22 22:27:00,67.8,55.6,29.86,ESE,107,1.0,1.0,65,0.00,,---,0.00,VWS V14.00,2013-06-23 05:27:00,
2013-06-22 22:32:00,67.8,55.2,29.86,SSE,165,0.0,2.0,64,0.00,,---,0.00,VWS V14.00,2013-06-23 05:32:00,
2013-06-22 22:37:00,67.8,55.2,29.87,SSE,160,1.0,4.0,64,0.00,,---,0.00,VWS V14.00,2013-06-23 05:37:00,
2013-06-22 22:42:00,67.8,53.4,29.87,SSE,152,2.0,5.0,60,0.00,,---,0.00,VWS V14.00,2013-06-23 05:42:00,
2013-06-22 22:47:00,67.8,52.0,29.87,SSE,164,1.0,5.0,57,0.00,,---,0.00,VWS V14.00,2013-06-23 05:47:00,
2013-06-22 22:52:00,67.6,51.8,29.87,SSE,163,1.0,6.0,57,0.00,,---,0.00,VWS V14.00,2013-06-23 05:52:00,
2013-06-22 22:57:00,67.4,52.1,29.87,SSE,159,1.0,6.0,58,0.00,,---,0.00,VWS V14.00,2013-06-23 05:57:00,
2013-06-22 23:01:00,67.3,52.5,29.87,SSE,159,0.0,6.0,59,0.00,,---,0.00,VWS V14.00,2013-06-23 06:01:00,
2013-06-22 23:06:00,67.0,52.2,29.86,SSE,163,1.0,4.0,59,0.00,,---,0.00,VWS V14.00,2013-06-23 06:06:00,
2013-06-22 23:11:00,66.8,51.6,29.87,SSE,163,2.0,4.0,58,0.00,,---,0.00,VWS V14.00,2013-06-23 06:11:00,
2013-06-22 23:16:00,66.7,51.5,29.87,SSE,162,0.0,4.0,58,0.00,,---,0.00,VWS V14.00,2013-06-23 06:16:00,
2013-06-22 23:21:00,66.6,51.8,29.87,SSE,162,0.0,4.0,59,0.00,,---,0.00,VWS V14.00,2013-06-23 06:21:00,
2013-06-22 23:26:00,66.6,51.8,29.86,SSE,159,0.0,4.0,59,0.00,,---,0.00,VWS V14.00,2013-06-23 06:26:00,
2013-06-22 23:31:00,66.6,51.8,29.86,SSE,159,0.0,4.0,59,0.00,,---,0.00,VWS V14.00,2013-06-23 06:31:00,
2013-06-22 23:36:00,66.6,51.8,29.86,SSE,159,0.0,2.0,59,0.00,,---,0.00,VWS V14.00,2013-06-23 06:36:00,
2013-06-22 23:41:00,66.6,49.5,29.86,SSE,159,0.0,2.0,54,0.00,,---,0.00,VWS V14.00,2013-06-23 06:41:00,
2013-06-22 23:46:00,66.6,50.0,29.86,SSE,159,1.0,2.0,55,0.00,,---,0.00,VWS V14.00,2013-06-23 06:46:00,
2013-06-22 23:51:00,66.6,50.0,29.86,SSE,157,0.0,2.0,55,0.00,,---,0.00,VWS V14.00,2013-06-23 06:51:00,
2013-06-22 23:56:00,66.5,48.9,29.86,SSE,158,0.0,2.0,53,0.00,,---,0.00,VWS V14.00,2013-06-23 06:56:00,